Time;durP1;ratioP1;P1;durP2;ratioP2;P2;SDS_P1;SDS_P2;PMS_P1;PMS_P2;Temp;Humidity;BMP_temperature;BMP_pressure;BME280_temperature;BME280_humidity;BME280_pressure;Samples;Min_cycle;Max_cycle;Signal;HPM_P1;HPM_P2
2022/10/03 00:01:14;;;;;;;12.20;11.50;;;13.20;96.80;;;;;;5026568;28;20458;-70
2022/10/03 00:03:52;;;;;;;13.27;12.47;;;13.20;96.90;;;;;;5025952;28;20533;-70
2022/10/03 00:06:29;;;;;;;12.70;11.80;;;13.10;97.00;;;;;;5028272;28;20454;-70
2022/10/03 00:09:26;;;;;;;13.90;13.10;;;13.00;97.30;;;;;;5029343;28;20468;-70
2022/10/03 00:12:04;;;;;;;13.10;12.40;;;13.00;97.40;;;;;;5026841;28;20478;-69
2022/10/03 00:14:38;;;;;;;13.30;12.60;;;13.00;97.50;;;;;;5019761;28;20547;-70
2022/10/03 00:17:14;;;;;;;13.07;12.27;;;13.00;97.60;;;;;;5029097;28;20453;-70
2022/10/03 00:19:50;;;;;;;13.43;12.73;;;12.90;97.40;;;;;;5025145;28;20451;-70
2022/10/03 00:22:28;;;;;;;14.30;13.37;;;12.90;97.50;;;;;;5025863;28;20541;-69
2022/10/03 00:25:06;;;;;;;14.20;13.30;;;12.90;97.50;;;;;;5028111;28;20567;-70
2022/10/03 00:27:39;;;;;;;13.97;13.10;;;12.90;97.50;;;;;;5026539;28;20460;-70
2022/10/03 00:30:17;;;;;;;13.53;12.83;;;12.90;97.40;;;;;;5022955;28;20564;-70
2022/10/03 00:33:03;;;;;;;13.20;12.60;;;12.90;97.50;;;;;;5025011;28;20470;-70
2022/10/03 00:35:44;;;;;;;13.90;13.10;;;13.00;97.60;;;;;;5022569;28;20459;-70
2022/10/03 00:38:46;;;;;;;14.17;13.20;;;12.90;97.90;;;;;;5029330;28;20459;-70
2022/10/03 00:42:03;;;;;;;13.13;12.43;;;12.90;98.00;;;;;;5021341;28;20467;-69
2022/10/03 00:45:10;;;;;;;14.00;13.00;;;12.90;98.20;;;;;;5018356;28;20504;-69
2022/10/03 00:48:12;;;;;;;13.30;12.60;;;12.90;98.00;;;;;;5003587;28;20460;-70
2022/10/03 00:51:12;;;;;;;13.70;13.00;;;12.90;97.80;;;;;;5025912;28;20471;-69
2022/10/03 00:54:03;;;;;;;14.00;13.00;;;13.00;97.60;;;;;;5026185;28;20841;-69
2022/10/03 00:56:53;;;;;;;14.13;13.20;;;12.90;97.90;;;;;;5028645;28;20456;-70
2022/10/03 00:59:35;;;;;;;14.13;13.23;;;12.90;98.00;;;;;;5024438;28;20463;-69
2022/10/03 01:02:25;;;;;;;14.10;13.30;;;12.90;97.90;;;;;;5019327;28;20452;-69
2022/10/03 01:05:03;;;;;;;13.23;12.50;;;12.90;97.70;;;;;;5022596;28;20490;-70
2022/10/03 01:07:56;;;;;;;13.37;12.67;;;12.90;97.40;;;;;;5020773;28;20470;-69
2022/10/03 01:10:30;;;;;;;14.80;13.67;;;12.80;97.60;;;;;;5024787;28;20460;-68
2022/10/03 01:13:20;;;;;;;14.30;13.40;;;12.80;97.70;;;;;;5026345;28;21217;-67
2022/10/03 01:15:54;;;;;;;14.43;13.60;;;12.80;97.60;;;;;;5025328;28;20467;-69
2022/10/03 01:18:31;;;;;;;14.23;13.43;;;12.80;97.90;;;;;;5025334;28;20460;-67
2022/10/03 01:21:07;;;;;;;14.90;14.10;;;12.80;98.00;;;;;;5027274;28;20478;-67
2022/10/03 01:24:02;;;;;;;15.43;14.33;;;12.70;98.20;;;;;;5024111;28;20482;-67
2022/10/03 01:26:52;;;;;;;14.87;14.03;;;12.70;98.30;;;;;;5026323;28;20487;-67
2022/10/03 01:32:18;;;;;;;15.90;14.90;;;12.70;98.50;;;;;;5021802;28;20455;-67
2022/10/03 01:34:54;;;;;;;15.03;14.03;;;12.70;98.40;;;;;;5026561;28;21009;-67
2022/10/03 01:37:29;;;;;;;14.60;13.63;;;12.70;98.40;;;;;;5029067;28;20467;-67
2022/10/03 01:40:03;;;;;;;15.00;14.10;;;12.70;98.30;;;;;;5023628;28;20969;-67
2022/10/03 01:42:39;;;;;;;14.20;13.50;;;12.70;98.30;;;;;;5024996;28;20456;-67
2022/10/03 01:45:24;;;;;;;13.63;12.83;;;12.70;98.30;;;;;;5023630;28;20479;-67
2022/10/03 01:48:00;;;;;;;14.93;13.93;;;12.70;98.30;;;;;;5024535;28;20477;-69
2022/10/03 01:50:35;;;;;;;14.20;13.10;;;12.70;98.40;;;;;;5025860;28;20940;-67
2022/10/03 01:53:08;;;;;;;14.20;13.40;;;12.70;98.40;;;;;;5028324;28;20484;-66
2022/10/03 01:55:42;;;;;;;14.90;13.90;;;12.60;98.40;;;;;;5026764;28;20933;-67
2022/10/03 01:58:13;;;;;;;14.83;13.90;;;12.60;98.40;;;;;;5020305;28;21067;-67
2022/10/03 02:00:50;;;;;;;14.70;13.70;;;12.70;98.40;;;;;;5025085;28;20456;-67
2022/10/03 02:03:23;;;;;;;15.20;14.27;;;12.70;98.20;;;;;;5026174;28;20498;-67
2022/10/03 02:05:58;;;;;;;13.90;13.00;;;12.60;98.40;;;;;;5023774;28;20913;-70
2022/10/03 02:08:35;;;;;;;14.63;13.67;;;12.60;98.80;;;;;;5025912;28;20590;-67
2022/10/03 02:11:07;;;;;;;13.67;12.97;;;12.60;98.80;;;;;;5025634;28;20495;-69
2022/10/03 02:13:45;;;;;;;15.07;14.00;;;12.70;98.70;;;;;;5023243;28;20489;-69
2022/10/03 02:16:20;;;;;;;14.93;13.93;;;12.70;98.60;;;;;;5022926;28;20460;-68
2022/10/03 02:18:53;;;;;;;15.00;14.10;;;12.70;98.20;;;;;;5026249;28;20461;-69
2022/10/03 02:21:22;;;;;;;15.27;14.07;;;12.60;98.20;;;;;;5022779;28;20534;-69
2022/10/03 02:24:01;;;;;;;16.53;15.20;;;12.60;98.20;;;;;;5021864;28;20531;-70
2022/10/03 02:27:08;;;;;;;15.53;14.60;;;12.60;98.20;;;;;;5025004;28;20502;-70
2022/10/03 02:29:59;;;;;;;14.27;13.37;;;12.70;98.30;;;;;;5021952;28;20462;-69
2022/10/03 02:33:08;;;;;;;15.67;14.67;;;12.70;98.00;;;;;;5026302;28;20466;-69
2022/10/03 02:36:26;;;;;;;16.80;15.57;;;12.60;98.20;;;;;;5018184;28;20458;-71
2022/10/03 02:39:25;;;;;;;16.20;15.30;;;12.70;97.80;;;;;;4957253;28;20458;-70
2022/10/03 02:42:16;;;;;;;17.67;16.20;;;12.70;97.20;;;;;;5025810;28;20464;-69
2022/10/03 02:45:10;;;;;;;16.30;15.20;;;12.70;97.40;;;;;;5024609;28;20477;-69
2022/10/03 02:48:08;;;;;;;15.77;14.83;;;12.60;97.60;;;;;;5027692;28;20458;-69
2022/10/03 02:51:08;;;;;;;16.20;15.30;;;12.60;97.70;;;;;;5026915;28;20463;-69
2022/10/03 02:54:02;;;;;;;15.50;14.60;;;12.60;97.70;;;;;;5007218;28;20499;-69
2022/10/03 02:56:56;;;;;;;15.70;14.53;;;12.60;97.60;;;;;;5029807;28;20445;-69
2022/10/03 03:00:16;;;;;;;16.93;15.80;;;12.50;97.70;;;;;;5029071;28;20452;-69
2022/10/03 03:03:28;;;;;;;18.37;17.27;;;12.40;97.60;;;;;;4993095;28;20451;-67
2022/10/03 03:06:28;;;;;;;16.43;15.53;;;12.40;97.80;;;;;;5027510;28;20474;-67
2022/10/03 03:09:17;;;;;;;16.77;15.50;;;12.30;98.00;;;;;;5029901;28;21025;-67
2022/10/03 03:12:34;;;;;;;17.93;16.70;;;12.30;98.20;;;;;;5023911;28;20479;-67
2022/10/03 03:15:37;;;;;;;15.00;14.13;;;12.30;98.50;;;;;;5017615;28;20966;-67
2022/10/03 03:18:12;;;;;;;16.53;15.43;;;12.30;98.50;;;;;;5028478;28;20458;-67
2022/10/03 03:20:53;;;;;;;16.77;15.67;;;12.40;98.20;;;;;;5020167;28;21250;-67
2022/10/03 03:23:35;;;;;;;17.37;16.17;;;12.30;98.30;;;;;;5027337;28;21020;-68
2022/10/03 03:26:29;;;;;;;16.63;15.43;;;12.40;97.90;;;;;;5025585;28;20850;-69
2022/10/03 03:29:09;;;;;;;17.37;16.07;;;12.40;97.60;;;;;;5028097;28;20844;-70
2022/10/03 03:31:44;;;;;;;15.80;14.70;;;12.30;97.90;;;;;;5026386;28;20552;-70
2022/10/03 03:34:18;;;;;;;17.37;16.23;;;12.20;98.60;;;;;;5023813;28;21019;-69
2022/10/03 03:36:54;;;;;;;19.73;18.33;;;12.20;98.70;;;;;;5029306;28;20598;-69
2022/10/03 03:39:44;;;;;;;17.60;16.50;;;12.30;98.60;;;;;;5027596;28;20462;-69
2022/10/03 03:42:38;;;;;;;17.30;16.00;;;12.20;98.50;;;;;;5025515;28;20815;-69
2022/10/03 03:45:18;;;;;;;17.83;16.27;;;12.20;98.50;;;;;;5027650;28;20447;-71
2022/10/03 03:48:11;;;;;;;17.67;16.57;;;12.20;98.40;;;;;;5020823;28;20456;-69
2022/10/03 03:50:58;;;;;;;17.47;16.20;;;12.10;98.30;;;;;;5028111;28;20890;-69
2022/10/03 03:53:53;;;;;;;33.03;31.13;;;12.10;98.40;;;;;;5021348;28;20473;-69
2022/10/03 03:56:45;;;;;;;18.63;17.43;;;12.10;98.40;;;;;;5027250;28;20452;-69
2022/10/03 03:59:29;;;;;;;18.97;17.57;;;12.10;98.30;;;;;;5022794;28;20510;-70
2022/10/03 04:02:16;;;;;;;34.53;32.73;;;12.10;98.20;;;;;;5021401;28;20462;-71
2022/10/03 04:04:59;;;;;;;21.03;19.53;;;12.10;98.10;;;;;;5022672;28;20479;-69
2022/10/03 04:07:41;;;;;;;17.40;16.20;;;12.00;97.70;;;;;;5028478;28;20481;-69
2022/10/03 04:10:23;;;;;;;18.87;17.67;;;12.00;97.60;;;;;;5023868;28;20448;-68
2022/10/03 04:13:16;;;;;;;19.73;18.10;;;12.00;97.80;;;;;;5025370;28;20677;-69
2022/10/03 04:16:06;;;;;;;19.30;17.70;;;11.90;97.60;;;;;;5026479;28;20460;-69
2022/10/03 04:18:59;;;;;;;17.13;15.83;;;11.90;97.50;;;;;;5029503;28;20833;-69
2022/10/03 04:21:57;;;;;;;16.60;15.20;;;11.80;98.20;;;;;;5026298;28;20460;-69
2022/10/03 04:24:51;;;;;;;17.43;16.33;;;11.80;98.60;;;;;;5019809;28;20485;-71
2022/10/03 04:27:37;;;;;;;17.83;16.63;;;11.80;98.30;;;;;;5028519;28;20490;-69
2022/10/03 04:30:10;;;;;;;18.77;17.20;;;11.80;98.00;;;;;;5026334;28;20460;-69
2022/10/03 04:32:57;;;;;;;23.23;21.60;;;11.80;98.20;;;;;;5025769;28;20491;-69
2022/10/03 04:35:59;;;;;;;19.63;18.33;;;11.80;98.20;;;;;;5025006;28;20455;-69
2022/10/03 04:38:43;;;;;;;24.97;23.33;;;11.70;98.40;;;;;;5019834;28;20979;-71
2022/10/03 04:41:22;;;;;;;19.10;17.70;;;11.80;98.50;;;;;;5023056;28;20542;-69
2022/10/03 04:43:57;;;;;;;19.97;18.30;;;11.80;98.20;;;;;;5026434;28;21056;-69
2022/10/03 04:46:30;;;;;;;19.77;18.43;;;11.70;98.50;;;;;;5028019;28;20471;-69
2022/10/03 04:49:04;;;;;;;21.17;19.30;;;11.80;98.50;;;;;;5027048;28;20842;-69
2022/10/03 04:51:44;;;;;;;21.13;19.60;;;11.70;98.60;;;;;;5028532;28;20448;-69
2022/10/03 04:54:22;;;;;;;18.57;17.03;;;11.80;98.70;;;;;;5024696;28;20482;-69
2022/10/03 04:56:56;;;;;;;19.00;17.70;;;11.80;98.70;;;;;;5027879;28;20466;-69
2022/10/03 04:59:47;;;;;;;18.80;17.23;;;11.90;98.40;;;;;;5026859;28;20538;-70
2022/10/03 05:02:36;;;;;;;39.67;37.37;;;11.80;98.40;;;;;;5026477;28;20474;-69
2022/10/03 05:05:33;;;;;;;18.60;17.30;;;11.90;98.00;;;;;;5027706;28;20455;-69
2022/10/03 05:08:12;;;;;;;20.60;18.70;;;11.90;98.00;;;;;;5011263;28;20447;-69
2022/10/03 05:10:56;;;;;;;19.60;18.03;;;12.00;97.60;;;;;;5026461;28;20542;-69
2022/10/03 05:13:38;;;;;;;20.43;19.03;;;12.00;97.30;;;;;;5026350;28;20463;-69
2022/10/03 05:16:15;;;;;;;19.23;17.83;;;12.00;97.70;;;;;;5028407;28;20548;-69
2022/10/03 05:18:49;;;;;;;20.23;18.83;;;12.00;97.30;;;;;;5028352;28;20905;-69
2022/10/03 05:21:26;;;;;;;19.87;18.27;;;11.90;97.50;;;;;;5027991;28;20452;-69
2022/10/03 05:24:02;;;;;;;20.57;18.87;;;11.90;97.50;;;;;;5023018;28;20869;-69
2022/10/03 05:26:44;;;;;;;45.10;42.37;;;12.00;97.30;;;;;;5027365;28;20575;-69
2022/10/03 05:29:24;;;;;;;22.33;20.23;;;12.00;97.20;;;;;;5028722;28;20495;-71
2022/10/03 05:32:03;;;;;;;23.50;21.90;;;11.90;97.30;;;;;;5026612;28;20483;-69
2022/10/03 05:34:40;;;;;;;20.60;19.20;;;11.90;97.40;;;;;;5024978;28;20480;-69
2022/10/03 05:37:38;;;;;;;19.20;17.73;;;11.90;97.50;;;;;;5027320;28;20444;-69
2022/10/03 05:40:16;;;;;;;22.63;21.07;;;11.90;97.30;;;;;;5024203;28;20453;-69
2022/10/03 05:43:02;;;;;;;23.13;21.50;;;11.90;97.30;;;;;;5024236;28;20463;-69
2022/10/03 05:45:35;;;;;;;20.67;19.17;;;11.90;97.50;;;;;;5023278;28;20458;-69
2022/10/03 05:48:14;;;;;;;20.37;18.67;;;12.00;97.50;;;;;;5025819;28;20655;-74
2022/10/03 05:51:12;;;;;;;20.73;18.97;;;12.00;97.40;;;;;;5027878;28;20474;-70
2022/10/03 05:54:27;;;;;;;22.20;20.60;;;12.00;97.80;;;;;;5024019;28;20985;-71
2022/10/03 05:57:13;;;;;;;20.47;18.67;;;12.00;97.60;;;;;;5029412;28;20816;-71
2022/10/03 06:00:02;;;;;;;21.37;19.03;;;12.10;97.30;;;;;;5023751;28;20487;-67
2022/10/03 06:03:03;;;;;;;24.87;22.90;;;12.10;96.90;;;;;;5025452;28;20456;-69
2022/10/03 06:05:32;;;;;;;31.30;28.80;;;12.10;97.00;;;;;;5026156;28;20465;-67
2022/10/03 06:08:26;;;;;;;25.13;22.80;;;12.10;96.80;;;;;;5026703;28;20448;-66
2022/10/03 06:11:02;;;;;;;37.37;34.27;;;12.20;97.30;;;;;;5025501;28;20491;-67
2022/10/03 06:13:45;;;;;;;27.37;24.90;;;12.20;97.00;;;;;;5022152;28;20476;-68
2022/10/03 06:16:26;;;;;;;31.47;29.03;;;12.30;96.80;;;;;;5024351;28;20931;-67
2022/10/03 06:19:18;;;;;;;38.47;35.77;;;12.30;96.80;;;;;;5023807;28;20467;-67
2022/10/03 06:22:33;;;;;;;23.73;21.70;;;12.30;96.90;;;;;;5019267;28;20969;-67
2022/10/03 06:25:31;;;;;;;26.30;23.80;;;12.40;96.80;;;;;;4985338;28;20457;-67
2022/10/03 06:28:28;;;;;;;28.10;25.80;;;12.40;96.20;;;;;;5025184;28;20479;-68
2022/10/03 06:31:22;;;;;;;35.33;32.77;;;12.50;96.50;;;;;;5027216;28;20469;-67
2022/10/03 06:34:08;;;;;;;33.87;31.33;;;12.50;96.20;;;;;;4988004;28;20858;-72
2022/10/03 06:37:17;;;;;;;26.03;23.67;;;12.60;96.00;;;;;;5014044;28;21090;-71
2022/10/03 06:40:36;;;;;;;34.87;32.10;;;12.70;95.70;;;;;;5004066;28;20526;-70
2022/10/03 06:43:39;;;;;;;39.47;37.03;;;12.90;95.60;;;;;;5022878;28;20922;-74
2022/10/03 06:46:34;;;;;;;34.20;31.50;;;12.90;95.30;;;;;;5019576;28;20467;-71
2022/10/03 06:49:38;;;;;;;46.23;42.83;;;13.10;94.90;;;;;;5021730;28;20215;-70
2022/10/03 06:52:41;;;;;;;30.43;28.03;;;13.10;94.30;;;;;;5021299;28;20901;-71
2022/10/03 06:55:50;;;;;;;28.17;25.67;;;13.20;94.50;;;;;;5023494;28;20456;-71
2022/10/03 06:58:55;;;;;;;26.60;24.13;;;13.20;94.20;;;;;;5014992;28;20806;-71
2022/10/03 07:02:01;;;;;;;36.03;33.27;;;13.20;94.10;;;;;;5022359;28;20491;-69
2022/10/03 07:05:09;;;;;;;28.07;25.70;;;13.20;93.80;;;;;;5022617;28;20478;-70
2022/10/03 07:08:21;;;;;;;28.33;25.90;;;13.10;93.80;;;;;;5025214;28;20498;-70
2022/10/03 07:11:07;;;;;;;34.87;31.70;;;13.20;93.90;;;;;;5014645;28;20463;-70
2022/10/03 07:14:13;;;;;;;33.63;30.60;;;13.40;93.30;;;;;;5026438;28;20478;-71
2022/10/03 07:17:03;;;;;;;29.43;26.63;;;13.40;92.00;;;;;;5018527;28;20452;-70
2022/10/03 07:19:53;;;;;;;36.70;33.67;;;13.30;92.10;;;;;;5023011;28;20467;-71
2022/10/03 07:22:56;;;;;;;31.37;28.77;;;13.20;91.10;;;;;;5017879;28;20456;-72
2022/10/03 07:25:58;;;;;;;33.92;30.63;;;13.30;91.50;;;;;;5016518;28;20469;-71
2022/10/03 07:28:57;;;;;;;50.17;46.63;;;13.40;91.20;;;;;;5016303;28;20197;-70
2022/10/03 07:31:38;;;;;;;30.73;28.00;;;13.40;90.80;;;;;;5024283;28;20458;-70
2022/10/03 07:34:31;;;;;;;36.88;33.97;;;13.40;90.80;;;;;;5027328;28;21066;-71
2022/10/03 07:40:34;;;;;;;36.07;33.27;;;13.20;91.00;;;;;;5020497;28;20553;-70
2022/10/03 07:43:41;;;;;;;47.30;43.77;;;13.20;90.90;;;;;;5017198;28;20478;-70
2022/10/03 07:46:47;;;;;;;38.10;35.13;;;13.30;91.10;;;;;;5028185;28;20822;-68
2022/10/03 07:49:42;;;;;;;42.83;39.60;;;13.30;91.20;;;;;;5026607;28;20577;-68
2022/10/03 07:52:39;;;;;;;33.23;30.10;;;13.40;91.20;;;;;;5025872;28;20480;-69
2022/10/03 07:55:25;;;;;;;45.40;41.80;;;13.50;90.90;;;;;;5025164;28;20986;-68
2022/10/03 07:58:11;;;;;;;42.50;38.90;;;13.60;90.00;;;;;;5028242;28;20458;-68
2022/10/03 08:00:56;;;;;;;41.50;38.13;;;13.50;89.70;;;;;;5027575;28;20462;-68
2022/10/03 08:03:56;;;;;;;33.43;30.80;;;13.60;89.70;;;;;;5028869;28;20886;-68
2022/10/03 08:06:35;;;;;;;33.57;30.27;;;13.60;89.50;;;;;;5026918;28;20501;-68
2022/10/03 08:09:42;;;;;;;49.30;45.20;;;13.70;89.60;;;;;;5031251;28;21013;-68
2022/10/03 08:12:39;;;;;;;42.43;38.73;;;13.90;89.50;;;;;;5017868;28;20563;-68
2022/10/03 08:15:13;;;;;;;43.40;40.50;;;14.00;89.20;;;;;;5026937;28;20460;-68
2022/10/03 08:18:31;;;;;;;51.30;47.87;;;14.10;88.20;;;;;;5029109;28;20462;-68
2022/10/03 08:21:00;;;;;;;33.67;30.87;;;14.00;87.70;;;;;;5020108;28;20531;-68
2022/10/03 08:23:55;;;;;;;33.07;30.53;;;14.00;88.20;;;;;;5028256;28;20573;-68
2022/10/03 08:26:38;;;;;;;32.10;29.80;;;13.90;88.20;;;;;;5026006;28;20934;-68
2022/10/03 08:29:20;;;;;;;33.33;30.80;;;14.00;88.40;;;;;;5023925;28;20553;-69
2022/10/03 08:32:22;;;;;;;43.17;40.07;;;13.90;87.40;;;;;;5023635;28;20531;-68
2022/10/03 08:35:15;;;;;;;49.53;46.23;;;13.60;88.50;;;;;;5022732;28;21077;-68
2022/10/03 08:38:13;;;;;;;46.33;43.13;;;13.50;88.80;;;;;;5021760;28;20458;-70
2022/10/03 08:41:16;;;;;;;45.77;42.60;;;13.50;88.70;;;;;;5028629;28;20455;-70
2022/10/03 08:44:25;;;;;;;32.10;29.47;;;13.50;89.40;;;;;;5025193;28;20475;-71
2022/10/03 08:47:34;;;;;;;41.17;38.03;;;13.50;89.90;;;;;;5023655;28;20610;-70
2022/10/03 08:50:24;;;;;;;39.57;36.50;;;13.60;89.40;;;;;;5026206;28;20499;-71
2022/10/03 08:53:16;;;;;;;29.87;27.73;;;13.80;88.40;;;;;;5026347;28;20826;-71
2022/10/03 08:55:54;;;;;;;33.80;31.17;;;13.90;87.40;;;;;;5024734;28;20550;-70
2022/10/03 08:58:57;;;;;;;31.00;28.57;;;13.90;87.00;;;;;;5028885;28;20451;-71
2022/10/03 09:01:41;;;;;;;31.07;28.97;;;14.00;86.70;;;;;;5015938;28;20527;-70
2022/10/03 09:04:45;;;;;;;34.37;32.17;;;14.20;86.10;;;;;;5024205;28;20479;-71
2022/10/03 09:07:30;;;;;;;33.00;30.80;;;14.50;85.10;;;;;;5027770;28;20511;-70
2022/10/03 09:10:34;;;;;;;33.57;31.27;;;14.90;82.90;;;;;;5022157;28;20463;-71
2022/10/03 09:13:27;;;;;;;35.77;33.47;;;15.10;81.80;;;;;;5006682;28;20492;-70
2022/10/03 09:16:26;;;;;;;50.73;47.23;;;14.80;82.40;;;;;;5024545;28;20548;-71
2022/10/03 09:19:08;;;;;;;51.40;48.00;;;14.70;83.70;;;;;;5018394;28;20460;-71
2022/10/03 09:22:01;;;;;;;33.13;30.80;;;14.90;83.50;;;;;;5024486;28;20843;-70
2022/10/03 09:25:12;;;;;;;47.30;44.30;;;15.10;82.70;;;;;;5019573;28;21144;-71
2022/10/03 09:27:54;;;;;;;34.30;32.27;;;15.00;80.30;;;;;;5021013;28;20480;-71
2022/10/03 09:30:25;;;;;;;52.27;49.37;;;14.80;81.20;;;;;;5024744;28;20481;-70
2022/10/03 09:33:44;;;;;;;33.20;31.00;;;14.90;81.10;;;;;;5018451;28;22013;-70
2022/10/03 09:36:46;;;;;;;44.40;41.50;;;15.10;80.40;;;;;;5019509;28;20469;-70
2022/10/03 09:39:43;;;;;;;45.10;42.37;;;15.30;79.40;;;;;;5019424;28;21000;-70
2022/10/03 09:42:58;;;;;;;40.67;38.33;;;15.50;78.00;;;;;;5001635;28;20464;-70
2022/10/03 09:45:55;;;;;;;45.83;42.90;;;15.00;77.80;;;;;;5022577;28;20972;-68
2022/10/03 09:48:44;;;;;;;51.37;48.17;;;14.70;79.10;;;;;;5024427;28;20475;-68
2022/10/03 09:51:24;;;;;;;33.47;31.33;;;14.60;79.20;;;;;;5020922;28;20495;-68
2022/10/03 09:54:34;;;;;;;39.87;37.40;;;14.60;80.30;;;;;;5023654;28;20472;-70
2022/10/03 09:57:17;;;;;;;36.83;34.60;;;14.70;79.90;;;;;;5022979;28;20459;-70
2022/10/03 10:00:16;;;;;;;40.10;37.63;;;15.00;79.50;;;;;;5021505;28;21054;-70
2022/10/03 10:03:18;;;;;;;47.03;43.67;;;15.20;78.70;;;;;;5022310;28;21040;-70
2022/10/03 10:06:10;;;;;;;37.90;35.57;;;15.50;78.30;;;;;;5018896;28;20456;-71
2022/10/03 10:09:24;;;;;;;41.47;38.97;;;15.80;77.40;;;;;;5020936;28;20475;-70
2022/10/03 10:12:26;;;;;;;42.83;39.53;;;16.10;75.40;;;;;;5026226;28;20631;-71
2022/10/03 10:15:17;;;;;;;38.97;36.37;;;16.20;74.50;;;;;;5022563;28;20599;-70
2022/10/03 10:18:19;;;;;;;48.13;45.40;;;16.50;73.60;;;;;;5022713;28;20543;-71
2022/10/03 10:21:26;;;;;;;36.10;33.80;;;16.60;73.00;;;;;;5021132;28;20458;-70
2022/10/03 10:24:06;;;;;;;39.90;37.53;;;16.70;72.30;;;;;;5023670;28;20490;-70
2022/10/03 10:27:01;;;;;;;41.67;39.03;;;16.80;71.80;;;;;;5023782;28;20478;-70
2022/10/03 10:30:01;;;;;;;51.33;47.80;;;16.90;71.20;;;;;;5026348;28;20460;-69
2022/10/03 10:33:03;;;;;;;40.33;38.03;;;16.70;71.10;;;;;;5023592;28;20893;-73
2022/10/03 10:36:10;;;;;;;45.83;43.27;;;16.80;71.50;;;;;;5006821;28;20451;-68
2022/10/03 10:39:05;;;;;;;36.57;34.47;;;16.80;70.00;;;;;;5017771;28;20559;-67
2022/10/03 10:42:14;;;;;;;34.73;32.33;;;16.60;70.50;;;;;;5019516;28;20470;-68
2022/10/03 10:45:20;;;;;;;36.33;34.23;;;16.50;71.30;;;;;;5019978;28;21078;-68
2022/10/03 10:48:20;;;;;;;50.67;47.67;;;16.60;72.00;;;;;;5017675;28;21020;-68
2022/10/03 10:51:31;;;;;;;40.33;38.03;;;16.70;71.40;;;;;;5018900;28;20455;-68
2022/10/03 10:54:42;;;;;;;45.27;42.30;;;16.30;71.90;;;;;;5018141;28;20477;-68
2022/10/03 10:57:24;;;;;;;35.93;33.43;;;16.30;72.30;;;;;;5020208;28;20464;-68
2022/10/03 11:00:17;;;;;;;40.07;37.50;;;16.40;72.30;;;;;;5020708;28;20885;-68
2022/10/03 11:03:21;;;;;;;50.50;47.33;;;16.20;72.50;;;;;;5018602;28;20460;-69
2022/10/03 11:06:33;;;;;;;44.50;41.97;;;16.20;72.30;;;;;;5018699;28;20539;-69
2022/10/03 11:09:41;;;;;;;47.10;44.43;;;16.20;73.00;;;;;;5027467;28;20483;-69
2022/10/03 11:12:51;;;;;;;38.07;35.47;;;16.20;73.00;;;;;;5029176;28;20471;-70
2022/10/03 11:15:55;;;;;;;53.90;50.90;;;16.40;71.20;;;;;;5032136;28;20456;-70
2022/10/03 11:18:50;;;;;;;45.83;43.10;;;16.40;72.20;;;;;;5027586;28;20448;-68
2022/10/03 11:21:55;;;;;;;40.47;38.03;;;16.50;71.20;;;;;;5026279;28;20468;-69
2022/10/03 11:24:58;;;;;;;41.10;38.80;;;16.90;71.20;;;;;;5028116;28;20483;-69
2022/10/03 11:28:05;;;;;;;49.90;47.10;;;17.10;70.30;;;;;;5004366;28;20550;-68
2022/10/03 11:31:04;;;;;;;48.80;46.03;;;17.30;68.90;;;;;;5029063;28;20495;-69
2022/10/03 11:34:07;;;;;;;43.70;41.13;;;17.70;68.10;;;;;;4995031;28;20475;-69
2022/10/03 11:37:06;;;;;;;50.27;47.40;;;18.00;66.30;;;;;;5026057;28;20771;-69
2022/10/03 11:39:44;;;;;;;45.73;42.83;;;17.70;66.70;;;;;;5027447;28;20525;-69
2022/10/03 11:42:24;;;;;;;40.90;38.50;;;17.40;68.60;;;;;;5028684;28;20460;-69
2022/10/03 11:44:57;;;;;;;36.00;34.07;;;17.10;68.30;;;;;;5023750;28;20483;-69
2022/10/03 11:47:42;;;;;;;51.40;48.50;;;16.70;69.80;;;;;;5025704;28;20538;-70
2022/10/03 11:50:28;;;;;;;38.33;36.13;;;16.50;69.00;;;;;;5027908;28;20459;-70
2022/10/03 11:53:27;;;;;;;48.23;45.47;;;16.30;69.50;;;;;;5024859;28;20483;-70
2022/10/03 11:56:18;;;;;;;41.57;39.37;;;16.40;69.90;;;;;;5008922;28;20462;-70
2022/10/03 11:58:59;;;;;;;41.50;38.80;;;16.50;70.40;;;;;;5028747;28;20448;-69
2022/10/03 12:01:39;;;;;;;39.93;37.10;;;16.70;69.60;;;;;;5026204;28;20470;-69
2022/10/03 12:04:16;;;;;;;57.13;53.90;;;17.00;69.30;;;;;;5023725;28;20834;-68
2022/10/03 12:09:54;;;;;;;35.53;33.40;;;17.70;64.80;;;;;;5021676;28;20482;-69
2022/10/03 12:12:34;;;;;;;34.33;32.30;;;17.80;63.50;;;;;;5026578;28;20954;-69
2022/10/03 12:15:10;;;;;;;36.90;34.67;;;18.00;64.50;;;;;;5027032;28;20464;-69
2022/10/03 12:17:45;;;;;;;43.90;41.57;;;17.90;62.10;;;;;;5019274;28;20464;-69
2022/10/03 12:20:21;;;;;;;57.47;54.60;;;17.80;62.60;;;;;;5020485;28;20465;-69
2022/10/03 12:22:52;;;;;;;37.40;35.37;;;18.00;63.40;;;;;;5017883;28;20454;-70
2022/10/03 12:25:22;;;;;;;38.77;36.57;;;18.40;61.50;;;;;;5025548;28;20464;-70
2022/10/03 12:28:00;;;;;;;47.97;45.47;;;18.50;61.00;;;;;;5023464;28;20472;-70
2022/10/03 12:30:33;;;;;;;31.93;30.10;;;18.20;60.50;;;;;;5023232;28;20505;-70
2022/10/03 12:33:15;;;;;;;42.10;40.00;;;17.80;62.00;;;;;;5024228;28;20482;-70
2022/10/03 12:35:49;;;;;;;40.73;38.33;;;17.70;62.80;;;;;;5025037;28;20510;-72
2022/10/03 12:38:33;;;;;;;40.83;38.60;;;17.70;63.50;;;;;;5021716;28;20464;-71
2022/10/03 12:41:10;;;;;;;44.07;41.60;;;17.90;62.90;;;;;;5021202;28;20541;-71
2022/10/03 12:43:52;;;;;;;41.23;39.00;;;18.10;62.90;;;;;;5025580;28;20475;-71
2022/10/03 12:46:30;;;;;;;36.27;34.00;;;18.00;63.00;;;;;;5020087;28;20486;-71
2022/10/03 12:49:05;;;;;;;36.77;34.57;;;17.60;64.00;;;;;;5021727;28;21064;-72
2022/10/03 12:51:46;;;;;;;38.57;36.37;;;17.30;64.90;;;;;;5022062;28;20455;-71
2022/10/03 12:54:34;;;;;;;42.93;40.33;;;17.00;65.60;;;;;;5022680;28;20479;-72
2022/10/03 12:57:31;;;;;;;35.23;32.40;;;17.00;65.10;;;;;;5025243;28;20459;-69
2022/10/03 13:00:05;;;;;;;41.70;39.60;;;17.00;66.00;;;;;;5022549;28;20463;-69
2022/10/03 13:02:36;;;;;;;41.37;39.07;;;17.40;65.30;;;;;;5027077;28;20466;-69
2022/10/03 13:05:35;;;;;;;34.43;32.57;;;17.70;63.90;;;;;;5021374;28;20472;-69
2022/10/03 13:10:40;;;;;;;44.50;41.90;;;17.80;63.30;;;;;;5000082;28;20583;-70
2022/10/03 13:13:23;;;;;;;40.13;37.93;;;17.80;62.80;;;;;;5001573;28;20480;-72
2022/10/03 13:16:12;;;;;;;49.47;46.90;;;17.80;65.00;;;;;;5003090;28;20461;-71
2022/10/03 13:18:47;;;;;;;38.60;36.67;;;18.10;62.30;;;;;;4994304;28;20499;-71
2022/10/03 13:21:19;;;;;;;50.40;47.67;;;18.10;61.00;;;;;;5003190;28;20463;-71
2022/10/03 13:23:53;;;;;;;49.50;46.80;;;18.00;61.70;;;;;;4995964;28;20556;-71
2022/10/03 13:26:26;;;;;;;35.20;33.30;;;18.00;61.90;;;;;;4997415;28;20577;-71
2022/10/03 13:29:16;;;;;;;39.70;37.70;;;18.10;61.20;;;;;;5006842;28;20511;-72
2022/10/03 13:32:00;;;;;;;43.60;40.83;;;18.30;61.00;;;;;;5006617;28;20485;-73
2022/10/03 13:34:31;;;;;;;53.73;50.57;;;18.30;62.00;;;;;;5005040;28;20513;-72
2022/10/03 13:37:05;;;;;;;48.27;45.67;;;18.30;62.30;;;;;;5000639;28;20454;-72
2022/10/03 13:39:45;;;;;;;49.13;46.23;;;18.30;61.30;;;;;;4997477;28;20455;-74
2022/10/03 13:42:18;;;;;;;52.53;49.53;;;18.20;61.80;;;;;;5002795;28;20453;-73
2022/10/03 13:44:53;;;;;;;36.73;34.63;;;18.30;61.30;;;;;;5006462;28;20874;-74
2022/10/03 13:47:36;;;;;;;60.33;57.33;;;18.00;61.50;;;;;;5008290;28;20518;-73
2022/10/03 13:50:09;;;;;;;44.37;42.17;;;17.80;61.80;;;;;;5003513;28;20484;-73
2022/10/03 13:52:40;;;;;;;34.30;32.30;;;17.70;62.40;;;;;;5007545;28;20468;-72
2022/10/03 13:55:18;;;;;;;38.33;36.33;;;17.30;63.50;;;;;;5004179;28;20464;-73
2022/10/03 13:57:54;;;;;;;35.80;33.87;;;17.20;63.90;;;;;;5008131;28;20889;-72
2022/10/03 14:00:23;;;;;;;37.67;35.57;;;17.30;63.70;;;;;;5007034;28;20460;-73
2022/10/03 14:03:21;;;;;;;40.07;38.00;;;17.50;63.30;;;;;;5007463;28;20871;-73
2022/10/03 14:06:08;;;;;;;52.60;49.90;;;17.80;61.40;;;;;;5004394;28;20836;-70
2022/10/03 14:09:15;;;;;;;37.33;35.50;;;18.00;61.60;;;;;;5006183;28;20552;-70
2022/10/03 14:11:50;;;;;;;36.87;34.67;;;18.30;60.10;;;;;;4995184;28;20463;-72
2022/10/03 14:14:45;;;;;;;42.00;39.90;;;18.30;61.00;;;;;;5011533;28;20487;-72
2022/10/03 14:17:19;;;;;;;54.83;52.03;;;18.40;60.40;;;;;;4993090;28;20543;-73
2022/10/03 14:20:05;;;;;;;48.03;45.43;;;18.50;59.80;;;;;;5006511;28;20455;-72
2022/10/03 14:22:43;;;;;;;41.50;39.40;;;18.40;60.30;;;;;;5007115;28;20556;-71
2022/10/03 14:25:23;;;;;;;38.27;36.27;;;18.60;60.80;;;;;;5006791;28;20563;-69
2022/10/03 14:27:53;;;;;;;47.07;44.53;;;18.50;60.60;;;;;;5004550;28;20481;-70